sensor_id;sensor_type;location;lat;lon;timestamp;P1;durP1;ratioP1;P2;durP2;ratioP2
71610;SDS011;59459;51.172;6.682;2023-03-03T00:00:05;91.13;;;33.33;;
71610;SDS011;59459;51.172;6.682;2023-03-03T00:02:30;79.88;;;32.53;;
71610;SDS011;59459;51.172;6.682;2023-03-03T00:04:56;85.17;;;31.73;;
71610;SDS011;59459;51.172;6.682;2023-03-03T00:07:21;79.07;;;32.77;;
71610;SDS011;59459;51.172;6.682;2023-03-03T00:09:47;77.72;;;30.35;;
71610;SDS011;59459;51.172;6.682;2023-03-03T00:12:23;82.47;;;28.92;;
71610;SDS011;59459;51.172;6.682;2023-03-03T00:14:49;75.37;;;27.17;;
71610;SDS011;59459;51.172;6.682;2023-03-03T00:17:18;71.07;;;26.93;;
71610;SDS011;59459;51.172;6.682;2023-03-03T00:19:45;67.90;;;26.63;;
71610;SDS011;59459;51.172;6.682;2023-03-03T00:22:30;71.82;;;26.55;;
71610;SDS011;59459;51.172;6.682;2023-03-03T00:27:42;76.70;;;26.30;;
71610;SDS011;59459;51.172;6.682;2023-03-03T00:30:16;75.07;;;26.80;;
71610;SDS011;59459;51.172;6.682;2023-03-03T00:32:44;78.37;;;27.07;;
71610;SDS011;59459;51.172;6.682;2023-03-03T00:35:25;79.57;;;28.55;;
71610;SDS011;59459;51.172;6.682;2023-03-03T00:37:55;90.70;;;31.90;;
71610;SDS011;59459;51.172;6.682;2023-03-03T00:40:24;78.90;;;30.58;;
71610;SDS011;59459;51.172;6.682;2023-03-03T00:42:59;84.45;;;30.75;;
71610;SDS011;59459;51.172;6.682;2023-03-03T00:45:33;84.83;;;29.13;;
71610;SDS011;59459;51.172;6.682;2023-03-03T00:48:47;80.22;;;27.83;;
71610;SDS011;59459;51.172;6.682;2023-03-03T00:50:47;80.25;;;27.42;;
71610;SDS011;59459;51.172;6.682;2023-03-03T00:53:14;77.10;;;25.50;;
71610;SDS011;59459;51.172;6.682;2023-03-03T00:55:41;64.15;;;24.17;;
71610;SDS011;59459;51.172;6.682;2023-03-03T00:58:06;64.73;;;22.23;;
71610;SDS011;59459;51.172;6.682;2023-03-03T01:00:32;59.92;;;21.58;;
71610;SDS011;59459;51.172;6.682;2023-03-03T01:02:59;64.20;;;21.80;;
71610;SDS011;59459;51.172;6.682;2023-03-03T01:05:25;61.03;;;22.98;;
71610;SDS011;59459;51.172;6.682;2023-03-03T01:07:51;59.37;;;21.60;;
71610;SDS011;59459;51.172;6.682;2023-03-03T01:10:16;66.20;;;20.53;;
71610;SDS011;59459;51.172;6.682;2023-03-03T01:12:41;67.73;;;21.40;;
71610;SDS011;59459;51.172;6.682;2023-03-03T01:15:07;67.20;;;23.53;;
71610;SDS011;59459;51.172;6.682;2023-03-03T01:17:33;66.75;;;23.08;;
71610;SDS011;59459;51.172;6.682;2023-03-03T01:19:58;65.50;;;21.93;;
71610;SDS011;59459;51.172;6.682;2023-03-03T01:22:24;60.27;;;22.33;;
71610;SDS011;59459;51.172;6.682;2023-03-03T01:24:49;60.93;;;21.07;;
71610;SDS011;59459;51.172;6.682;2023-03-03T01:27:14;72.53;;;21.40;;
71610;SDS011;59459;51.172;6.682;2023-03-03T01:29:39;69.97;;;23.87;;
71610;SDS011;59459;51.172;6.682;2023-03-03T01:32:04;71.13;;;24.30;;
71610;SDS011;59459;51.172;6.682;2023-03-03T01:34:30;72.57;;;22.90;;
71610;SDS011;59459;51.172;6.682;2023-03-03T01:36:55;73.00;;;24.50;;
71610;SDS011;59459;51.172;6.682;2023-03-03T01:39:20;66.47;;;23.50;;
71610;SDS011;59459;51.172;6.682;2023-03-03T01:41:45;68.00;;;22.67;;
71610;SDS011;59459;51.172;6.682;2023-03-03T01:44:13;71.63;;;23.70;;
71610;SDS011;59459;51.172;6.682;2023-03-03T01:46:50;70.80;;;23.13;;
71610;SDS011;59459;51.172;6.682;2023-03-03T01:49:22;76.50;;;24.38;;
71610;SDS011;59459;51.172;6.682;2023-03-03T01:51:55;82.82;;;26.83;;
71610;SDS011;59459;51.172;6.682;2023-03-03T01:54:26;73.77;;;24.90;;
71610;SDS011;59459;51.172;6.682;2023-03-03T01:56:52;73.43;;;24.20;;
71610;SDS011;59459;51.172;6.682;2023-03-03T01:59:20;76.65;;;24.02;;
71610;SDS011;59459;51.172;6.682;2023-03-03T02:01:46;70.05;;;23.50;;
71610;SDS011;59459;51.172;6.682;2023-03-03T02:04:12;67.43;;;23.57;;
71610;SDS011;59459;51.172;6.682;2023-03-03T02:06:39;69.03;;;23.87;;
71610;SDS011;59459;51.172;6.682;2023-03-03T02:09:10;70.40;;;24.30;;
71610;SDS011;59459;51.172;6.682;2023-03-03T02:11:36;71.03;;;22.98;;
71610;SDS011;59459;51.172;6.682;2023-03-03T02:14:02;78.03;;;24.23;;
71610;SDS011;59459;51.172;6.682;2023-03-03T02:16:27;75.63;;;24.80;;
71610;SDS011;59459;51.172;6.682;2023-03-03T02:18:52;81.20;;;25.00;;
71610;SDS011;59459;51.172;6.682;2023-03-03T02:21:21;71.80;;;22.33;;
71610;SDS011;59459;51.172;6.682;2023-03-03T02:23:57;80.17;;;24.73;;
71610;SDS011;59459;51.172;6.682;2023-03-03T02:26:28;75.43;;;22.75;;
71610;SDS011;59459;51.172;6.682;2023-03-03T02:28:53;76.40;;;26.30;;
71610;SDS011;59459;51.172;6.682;2023-03-03T02:31:20;74.30;;;23.73;;
71610;SDS011;59459;51.172;6.682;2023-03-03T02:33:46;65.90;;;21.13;;
71610;SDS011;59459;51.172;6.682;2023-03-03T02:36:12;71.32;;;22.77;;
71610;SDS011;59459;51.172;6.682;2023-03-03T02:43:52;79.03;;;25.93;;
71610;SDS011;59459;51.172;6.682;2023-03-03T02:46:14;65.55;;;21.20;;
71610;SDS011;59459;51.172;6.682;2023-03-03T02:48:40;65.77;;;21.87;;
71610;SDS011;59459;51.172;6.682;2023-03-03T02:51:05;76.27;;;23.17;;
71610;SDS011;59459;51.172;6.682;2023-03-03T02:53:30;79.57;;;25.47;;
71610;SDS011;59459;51.172;6.682;2023-03-03T02:55:56;76.63;;;23.63;;
71610;SDS011;59459;51.172;6.682;2023-03-03T02:58:21;75.73;;;22.93;;
71610;SDS011;59459;51.172;6.682;2023-03-03T03:00:46;78.47;;;24.17;;
71610;SDS011;59459;51.172;6.682;2023-03-03T03:03:12;83.87;;;23.33;;
71610;SDS011;59459;51.172;6.682;2023-03-03T03:05:37;70.57;;;23.55;;
71610;SDS011;59459;51.172;6.682;2023-03-03T03:08:02;76.77;;;24.10;;
71610;SDS011;59459;51.172;6.682;2023-03-03T03:10:27;67.93;;;22.80;;
71610;SDS011;59459;51.172;6.682;2023-03-03T03:12:53;82.63;;;25.33;;
71610;SDS011;59459;51.172;6.682;2023-03-03T03:15:18;77.83;;;24.17;;
71610;SDS011;59459;51.172;6.682;2023-03-03T03:17:43;77.70;;;25.37;;
71610;SDS011;59459;51.172;6.682;2023-03-03T03:20:08;78.47;;;24.57;;
71610;SDS011;59459;51.172;6.682;2023-03-03T03:22:34;68.30;;;23.30;;
71610;SDS011;59459;51.172;6.682;2023-03-03T03:24:59;73.13;;;24.77;;
71610;SDS011;59459;51.172;6.682;2023-03-03T03:27:24;73.23;;;23.73;;
71610;SDS011;59459;51.172;6.682;2023-03-03T03:29:50;75.25;;;23.08;;
71610;SDS011;59459;51.172;6.682;2023-03-03T03:32:15;67.73;;;21.93;;
71610;SDS011;59459;51.172;6.682;2023-03-03T03:34:40;75.67;;;22.70;;
71610;SDS011;59459;51.172;6.682;2023-03-03T03:37:05;73.07;;;22.60;;
71610;SDS011;59459;51.172;6.682;2023-03-03T03:39:33;79.90;;;25.23;;
71610;SDS011;59459;51.172;6.682;2023-03-03T03:41:58;68.73;;;22.13;;
71610;SDS011;59459;51.172;6.682;2023-03-03T03:44:24;79.37;;;23.50;;
71610;SDS011;59459;51.172;6.682;2023-03-03T03:46:49;73.60;;;24.33;;
71610;SDS011;59459;51.172;6.682;2023-03-03T03:49:14;80.57;;;23.23;;
71610;SDS011;59459;51.172;6.682;2023-03-03T03:51:39;69.73;;;21.40;;
71610;SDS011;59459;51.172;6.682;2023-03-03T03:54:06;75.78;;;23.17;;
71610;SDS011;59459;51.172;6.682;2023-03-03T03:56:31;76.82;;;22.10;;
71610;SDS011;59459;51.172;6.682;2023-03-03T03:58:56;70.93;;;21.13;;
71610;SDS011;59459;51.172;6.682;2023-03-03T04:01:22;65.37;;;21.47;;
71610;SDS011;59459;51.172;6.682;2023-03-03T04:03:47;74.33;;;22.47;;
71610;SDS011;59459;51.172;6.682;2023-03-03T04:06:13;72.93;;;23.97;;
71610;SDS011;59459;51.172;6.682;2023-03-03T04:08:38;77.30;;;23.10;;
71610;SDS011;59459;51.172;6.682;2023-03-03T04:11:03;72.50;;;22.93;;
71610;SDS011;59459;51.172;6.682;2023-03-03T04:13:29;76.60;;;22.47;;
71610;SDS011;59459;51.172;6.682;2023-03-03T04:15:56;70.45;;;22.00;;
71610;SDS011;59459;51.172;6.682;2023-03-03T04:18:21;78.87;;;22.87;;
71610;SDS011;59459;51.172;6.682;2023-03-03T04:20:46;75.23;;;22.47;;
71610;SDS011;59459;51.172;6.682;2023-03-03T04:23:11;72.50;;;19.67;;
71610;SDS011;59459;51.172;6.682;2023-03-03T04:25:37;67.40;;;21.33;;
71610;SDS011;59459;51.172;6.682;2023-03-03T04:28:02;65.10;;;22.33;;
71610;SDS011;59459;51.172;6.682;2023-03-03T04:30:27;54.30;;;19.63;;
71610;SDS011;59459;51.172;6.682;2023-03-03T04:32:52;70.37;;;21.23;;
71610;SDS011;59459;51.172;6.682;2023-03-03T04:35:18;62.53;;;19.30;;
71610;SDS011;59459;51.172;6.682;2023-03-03T04:37:43;60.23;;;18.73;;
71610;SDS011;59459;51.172;6.682;2023-03-03T04:40:08;60.77;;;18.83;;
71610;SDS011;59459;51.172;6.682;2023-03-03T04:42:34;53.97;;;17.23;;
71610;SDS011;59459;51.172;6.682;2023-03-03T04:44:59;59.63;;;18.83;;
71610;SDS011;59459;51.172;6.682;2023-03-03T04:47:25;51.60;;;17.87;;
71610;SDS011;59459;51.172;6.682;2023-03-03T04:49:50;61.43;;;17.70;;
71610;SDS011;59459;51.172;6.682;2023-03-03T04:52:15;60.77;;;19.13;;
71610;SDS011;59459;51.172;6.682;2023-03-03T04:54:40;69.17;;;20.20;;
71610;SDS011;59459;51.172;6.682;2023-03-03T04:57:05;63.40;;;19.60;;
71610;SDS011;59459;51.172;6.682;2023-03-03T04:59:33;57.25;;;19.58;;
71610;SDS011;59459;51.172;6.682;2023-03-03T05:01:58;59.67;;;18.30;;
71610;SDS011;59459;51.172;6.682;2023-03-03T05:04:24;63.97;;;18.87;;
71610;SDS011;59459;51.172;6.682;2023-03-03T05:06:49;50.10;;;17.27;;
71610;SDS011;59459;51.172;6.682;2023-03-03T05:09:14;56.50;;;18.00;;
71610;SDS011;59459;51.172;6.682;2023-03-03T05:11:39;57.90;;;16.77;;
71610;SDS011;59459;51.172;6.682;2023-03-03T05:14:07;44.33;;;15.07;;
71610;SDS011;59459;51.172;6.682;2023-03-03T05:16:33;55.80;;;16.30;;
71610;SDS011;59459;51.172;6.682;2023-03-03T05:18:58;51.60;;;16.57;;
71610;SDS011;59459;51.172;6.682;2023-03-03T05:21:23;56.70;;;17.03;;
71610;SDS011;59459;51.172;6.682;2023-03-03T05:23:48;57.00;;;20.07;;
71610;SDS011;59459;51.172;6.682;2023-03-03T05:26:13;54.47;;;16.60;;
71610;SDS011;59459;51.172;6.682;2023-03-03T05:28:39;51.50;;;16.67;;
71610;SDS011;59459;51.172;6.682;2023-03-03T05:31:04;57.70;;;16.93;;
71610;SDS011;59459;51.172;6.682;2023-03-03T05:33:29;56.73;;;16.90;;
71610;SDS011;59459;51.172;6.682;2023-03-03T05:35:55;58.73;;;19.07;;
71610;SDS011;59459;51.172;6.682;2023-03-03T05:38:21;55.03;;;17.13;;
71610;SDS011;59459;51.172;6.682;2023-03-03T05:40:46;53.65;;;16.65;;
71610;SDS011;59459;51.172;6.682;2023-03-03T05:43:11;55.30;;;18.67;;
71610;SDS011;59459;51.172;6.682;2023-03-03T05:45:37;51.23;;;17.33;;
71610;SDS011;59459;51.172;6.682;2023-03-03T05:48:02;61.17;;;17.63;;
71610;SDS011;59459;51.172;6.682;2023-03-03T05:50:29;54.05;;;17.85;;
71610;SDS011;59459;51.172;6.682;2023-03-03T05:52:54;53.97;;;19.00;;
71610;SDS011;59459;51.172;6.682;2023-03-03T05:55:19;63.83;;;19.83;;
71610;SDS011;59459;51.172;6.682;2023-03-03T05:57:45;57.17;;;18.93;;
71610;SDS011;59459;51.172;6.682;2023-03-03T06:00:11;57.90;;;18.77;;
71610;SDS011;59459;51.172;6.682;2023-03-03T06:02:36;63.93;;;18.63;;
71610;SDS011;59459;51.172;6.682;2023-03-03T06:05:02;57.30;;;18.43;;
71610;SDS011;59459;51.172;6.682;2023-03-03T06:07:27;52.47;;;16.53;;
71610;SDS011;59459;51.172;6.682;2023-03-03T06:09:52;53.03;;;16.57;;
71610;SDS011;59459;51.172;6.682;2023-03-03T06:12:17;51.90;;;16.20;;
71610;SDS011;59459;51.172;6.682;2023-03-03T06:14:43;54.83;;;17.77;;
71610;SDS011;59459;51.172;6.682;2023-03-03T06:17:08;60.17;;;19.27;;
71610;SDS011;59459;51.172;6.682;2023-03-03T06:19:34;54.35;;;17.75;;
71610;SDS011;59459;51.172;6.682;2023-03-03T06:22:00;56.07;;;17.37;;
71610;SDS011;59459;51.172;6.682;2023-03-03T06:24:25;52.63;;;15.10;;
71610;SDS011;59459;51.172;6.682;2023-03-03T06:26:54;54.33;;;16.70;;
71610;SDS011;59459;51.172;6.682;2023-03-03T06:29:19;49.90;;;15.07;;
71610;SDS011;59459;51.172;6.682;2023-03-03T06:31:44;47.23;;;15.43;;
71610;SDS011;59459;51.172;6.682;2023-03-03T06:34:10;57.17;;;16.13;;
71610;SDS011;59459;51.172;6.682;2023-03-03T06:36:35;45.47;;;14.60;;
71610;SDS011;59459;51.172;6.682;2023-03-03T06:39:00;47.37;;;15.47;;
71610;SDS011;59459;51.172;6.682;2023-03-03T06:41:25;48.67;;;15.37;;
71610;SDS011;59459;51.172;6.682;2023-03-03T06:43:51;52.70;;;16.00;;
71610;SDS011;59459;51.172;6.682;2023-03-03T06:46:16;45.43;;;14.50;;
71610;SDS011;59459;51.172;6.682;2023-03-03T06:48:41;50.75;;;16.35;;
71610;SDS011;59459;51.172;6.682;2023-03-03T06:51:13;51.37;;;16.10;;
71610;SDS011;59459;51.172;6.682;2023-03-03T06:53:41;52.47;;;15.90;;
71610;SDS011;59459;51.172;6.682;2023-03-03T06:56:07;48.08;;;13.82;;
71610;SDS011;59459;51.172;6.682;2023-03-03T06:58:32;48.00;;;15.30;;
71610;SDS011;59459;51.172;6.682;2023-03-03T07:01:00;46.85;;;15.80;;
71610;SDS011;59459;51.172;6.682;2023-03-03T07:03:27;45.72;;;14.20;;
71610;SDS011;59459;51.172;6.682;2023-03-03T07:05:53;42.78;;;14.23;;
71610;SDS011;59459;51.172;6.682;2023-03-03T07:08:20;47.47;;;14.23;;
71610;SDS011;59459;51.172;6.682;2023-03-03T07:10:46;41.55;;;14.00;;
71610;SDS011;59459;51.172;6.682;2023-03-03T07:13:22;44.35;;;13.77;;
71610;SDS011;59459;51.172;6.682;2023-03-03T07:15:49;52.33;;;14.37;;
71610;SDS011;59459;51.172;6.682;2023-03-03T07:20:48;43.63;;;13.00;;
71610;SDS011;59459;51.172;6.682;2023-03-03T07:23:23;44.83;;;13.57;;
71610;SDS011;59459;51.172;6.682;2023-03-03T07:25:49;50.20;;;14.02;;
71610;SDS011;59459;51.172;6.682;2023-03-03T07:28:19;45.80;;;14.33;;
71610;SDS011;59459;51.172;6.682;2023-03-03T07:30:46;38.00;;;12.80;;
71610;SDS011;59459;51.172;6.682;2023-03-03T07:35:49;42.33;;;13.93;;
71610;SDS011;59459;51.172;6.682;2023-03-03T07:40:50;45.50;;;14.15;;
71610;SDS011;59459;51.172;6.682;2023-03-03T07:43:26;43.97;;;13.45;;
71610;SDS011;59459;51.172;6.682;2023-03-03T07:45:55;40.97;;;13.07;;
71610;SDS011;59459;51.172;6.682;2023-03-03T07:48:25;44.30;;;13.80;;
71610;SDS011;59459;51.172;6.682;2023-03-03T07:50:54;41.10;;;11.75;;
71610;SDS011;59459;51.172;6.682;2023-03-03T07:53:25;40.13;;;12.82;;
71610;SDS011;59459;51.172;6.682;2023-03-03T07:55:50;42.72;;;13.25;;
71610;SDS011;59459;51.172;6.682;2023-03-03T07:58:19;37.87;;;13.23;;
71610;SDS011;59459;51.172;6.682;2023-03-03T08:03:28;45.63;;;13.90;;
71610;SDS011;59459;51.172;6.682;2023-03-03T08:05:55;37.10;;;12.98;;
71610;SDS011;59459;51.172;6.682;2023-03-03T08:08:30;43.20;;;13.90;;
71610;SDS011;59459;51.172;6.682;2023-03-03T08:10:58;41.22;;;13.07;;
71610;SDS011;59459;51.172;6.682;2023-03-03T08:13:27;49.00;;;14.63;;
71610;SDS011;59459;51.172;6.682;2023-03-03T08:18:22;46.22;;;15.20;;
71610;SDS011;59459;51.172;6.682;2023-03-03T08:23:14;47.73;;;15.83;;
71610;SDS011;59459;51.172;6.682;2023-03-03T08:25:40;49.95;;;15.35;;
71610;SDS011;59459;51.172;6.682;2023-03-03T08:28:06;45.35;;;14.30;;
71610;SDS011;59459;51.172;6.682;2023-03-03T08:30:32;42.90;;;15.97;;
71610;SDS011;59459;51.172;6.682;2023-03-03T08:32:57;42.47;;;13.40;;
71610;SDS011;59459;51.172;6.682;2023-03-03T08:35:22;48.27;;;14.57;;
71610;SDS011;59459;51.172;6.682;2023-03-03T08:37:47;41.60;;;14.53;;
71610;SDS011;59459;51.172;6.682;2023-03-03T08:40:13;47.47;;;14.53;;
71610;SDS011;59459;51.172;6.682;2023-03-03T08:42:38;49.37;;;14.67;;
71610;SDS011;59459;51.172;6.682;2023-03-03T08:45:03;48.17;;;16.13;;
71610;SDS011;59459;51.172;6.682;2023-03-03T08:47:28;47.47;;;15.20;;
71610;SDS011;59459;51.172;6.682;2023-03-03T08:49:54;49.87;;;16.00;;
71610;SDS011;59459;51.172;6.682;2023-03-03T08:52:19;54.17;;;16.97;;
71610;SDS011;59459;51.172;6.682;2023-03-03T08:54:44;48.00;;;14.63;;
71610;SDS011;59459;51.172;6.682;2023-03-03T08:57:09;43.20;;;13.40;;
71610;SDS011;59459;51.172;6.682;2023-03-03T08:59:34;43.57;;;14.47;;
71610;SDS011;59459;51.172;6.682;2023-03-03T09:02:03;43.13;;;14.13;;
71610;SDS011;59459;51.172;6.682;2023-03-03T09:04:28;54.15;;;17.08;;
71610;SDS011;59459;51.172;6.682;2023-03-03T09:06:53;56.63;;;16.77;;
71610;SDS011;59459;51.172;6.682;2023-03-03T09:09:18;55.00;;;16.47;;
71610;SDS011;59459;51.172;6.682;2023-03-03T09:11:44;54.80;;;16.37;;
71610;SDS011;59459;51.172;6.682;2023-03-03T09:16:38;49.33;;;16.37;;
71610;SDS011;59459;51.172;6.682;2023-03-03T09:19:15;53.63;;;15.43;;
71610;SDS011;59459;51.172;6.682;2023-03-03T09:21:41;52.60;;;16.15;;
71610;SDS011;59459;51.172;6.682;2023-03-03T09:24:09;51.90;;;17.33;;
71610;SDS011;59459;51.172;6.682;2023-03-03T09:31:50;49.67;;;14.68;;
71610;SDS011;59459;51.172;6.682;2023-03-03T09:36:47;53.22;;;16.25;;
71610;SDS011;59459;51.172;6.682;2023-03-03T09:39:20;48.50;;;15.98;;
71610;SDS011;59459;51.172;6.682;2023-03-03T09:49:35;53.22;;;15.10;;
71610;SDS011;59459;51.172;6.682;2023-03-03T09:52:10;48.20;;;16.25;;
71610;SDS011;59459;51.172;6.682;2023-03-03T09:57:16;53.37;;;16.10;;
71610;SDS011;59459;51.172;6.682;2023-03-03T10:02:21;52.78;;;16.33;;
71610;SDS011;59459;51.172;6.682;2023-03-03T10:10:12;50.07;;;15.57;;
71610;SDS011;59459;51.172;6.682;2023-03-03T10:22:52;52.63;;;16.08;;
71610;SDS011;59459;51.172;6.682;2023-03-03T10:33:06;51.22;;;15.90;;
71610;SDS011;59459;51.172;6.682;2023-03-03T10:38:08;53.08;;;16.15;;
71610;SDS011;59459;51.172;6.682;2023-03-03T10:40:45;49.30;;;16.67;;
71610;SDS011;59459;51.172;6.682;2023-03-03T10:53:33;50.77;;;14.90;;
71610;SDS011;59459;51.172;6.682;2023-03-03T10:58:44;41.65;;;13.30;;
71610;SDS011;59459;51.172;6.682;2023-03-03T11:01:33;44.47;;;14.63;;
71610;SDS011;59459;51.172;6.682;2023-03-03T11:04:06;43.42;;;13.40;;
71610;SDS011;59459;51.172;6.682;2023-03-03T11:06:45;44.20;;;14.70;;
71610;SDS011;59459;51.172;6.682;2023-03-03T11:11:59;40.70;;;13.68;;
71610;SDS011;59459;51.172;6.682;2023-03-03T11:19:39;43.55;;;13.38;;
71610;SDS011;59459;51.172;6.682;2023-03-03T11:22:19;41.53;;;12.63;;
71610;SDS011;59459;51.172;6.682;2023-03-03T11:29:54;41.92;;;12.98;;
71610;SDS011;59459;51.172;6.682;2023-03-03T11:32:25;39.20;;;12.55;;
71610;SDS011;59459;51.172;6.682;2023-03-03T11:40:23;38.33;;;11.95;;
71610;SDS011;59459;51.172;6.682;2023-03-03T11:43:09;35.47;;;11.52;;
71610;SDS011;59459;51.172;6.682;2023-03-03T11:45:56;41.03;;;13.00;;
71610;SDS011;59459;51.172;6.682;2023-03-03T11:51:31;38.60;;;12.68;;
71610;SDS011;59459;51.172;6.682;2023-03-03T11:54:33;35.42;;;11.82;;
71610;SDS011;59459;51.172;6.682;2023-03-03T11:56:49;36.28;;;11.25;;
71610;SDS011;59459;51.172;6.682;2023-03-03T12:05:06;37.08;;;12.30;;
71610;SDS011;59459;51.172;6.682;2023-03-03T12:10:17;34.78;;;11.30;;
71610;SDS011;59459;51.172;6.682;2023-03-03T12:15:49;36.00;;;11.20;;
71610;SDS011;59459;51.172;6.682;2023-03-03T12:23:40;36.42;;;12.10;;
71610;SDS011;59459;51.172;6.682;2023-03-03T12:26:14;44.42;;;13.70;;
71610;SDS011;59459;51.172;6.682;2023-03-03T12:28:41;34.17;;;11.93;;
71610;SDS011;59459;51.172;6.682;2023-03-03T12:43:55;41.60;;;12.47;;
71610;SDS011;59459;51.172;6.682;2023-03-03T12:46:35;42.90;;;12.65;;
71610;SDS011;59459;51.172;6.682;2023-03-03T12:49:04;36.30;;;11.02;;
71610;SDS011;59459;51.172;6.682;2023-03-03T12:56:39;35.07;;;12.23;;
71610;SDS011;59459;51.172;6.682;2023-03-03T13:10:13;40.20;;;14.02;;
71610;SDS011;59459;51.172;6.682;2023-03-03T13:12:55;48.05;;;15.07;;
71610;SDS011;59459;51.172;6.682;2023-03-03T13:20:50;39.70;;;13.55;;
71610;SDS011;59459;51.172;6.682;2023-03-03T13:28:45;34.13;;;13.03;;
71610;SDS011;59459;51.172;6.682;2023-03-03T13:31:21;36.80;;;12.75;;
71610;SDS011;59459;51.172;6.682;2023-03-03T13:33:53;41.10;;;12.20;;
71610;SDS011;59459;51.172;6.682;2023-03-03T13:36:19;32.40;;;11.25;;
71610;SDS011;59459;51.172;6.682;2023-03-03T13:38:46;33.55;;;12.00;;
71610;SDS011;59459;51.172;6.682;2023-03-03T13:43:50;33.83;;;11.52;;
71610;SDS011;59459;51.172;6.682;2023-03-03T13:46:20;29.13;;;11.13;;
71610;SDS011;59459;51.172;6.682;2023-03-03T13:48:54;30.63;;;11.27;;
71610;SDS011;59459;51.172;6.682;2023-03-03T13:56:25;29.67;;;10.60;;
71610;SDS011;59459;51.172;6.682;2023-03-03T14:04:13;31.53;;;11.50;;
71610;SDS011;59459;51.172;6.682;2023-03-03T14:06:46;30.45;;;10.82;;
71610;SDS011;59459;51.172;6.682;2023-03-03T14:09:20;32.65;;;11.82;;
71610;SDS011;59459;51.172;6.682;2023-03-03T14:17:01;37.53;;;12.50;;
71610;SDS011;59459;51.172;6.682;2023-03-03T14:19:43;37.03;;;13.07;;
71610;SDS011;59459;51.172;6.682;2023-03-03T14:27:22;38.90;;;14.23;;
71610;SDS011;59459;51.172;6.682;2023-03-03T14:29:48;40.47;;;14.25;;
71610;SDS011;59459;51.172;6.682;2023-03-03T14:32:22;38.70;;;13.83;;
71610;SDS011;59459;51.172;6.682;2023-03-03T14:34:55;44.08;;;15.38;;
71610;SDS011;59459;51.172;6.682;2023-03-03T14:39:50;50.63;;;16.57;;
71610;SDS011;59459;51.172;6.682;2023-03-03T14:44:54;44.88;;;17.05;;
71610;SDS011;59459;51.172;6.682;2023-03-03T14:49:46;43.33;;;16.53;;
71610;SDS011;59459;51.172;6.682;2023-03-03T14:54:41;40.13;;;15.37;;
71610;SDS011;59459;51.172;6.682;2023-03-03T15:00:03;45.45;;;16.73;;
71610;SDS011;59459;51.172;6.682;2023-03-03T15:02:45;36.17;;;15.15;;
71610;SDS011;59459;51.172;6.682;2023-03-03T15:05:24;35.03;;;13.43;;
71610;SDS011;59459;51.172;6.682;2023-03-03T15:08:12;40.97;;;15.00;;
71610;SDS011;59459;51.172;6.682;2023-03-03T15:10:38;35.65;;;13.80;;
71610;SDS011;59459;51.172;6.682;2023-03-03T15:15:52;41.20;;;16.15;;
71610;SDS011;59459;51.172;6.682;2023-03-03T15:18:25;38.50;;;15.52;;
71610;SDS011;59459;51.172;6.682;2023-03-03T15:23:34;34.90;;;14.93;;
71610;SDS011;59459;51.172;6.682;2023-03-03T15:26:22;38.80;;;15.68;;
71610;SDS011;59459;51.172;6.682;2023-03-03T15:36:57;38.53;;;16.40;;
71610;SDS011;59459;51.172;6.682;2023-03-03T15:44:37;41.90;;;16.95;;
71610;SDS011;59459;51.172;6.682;2023-03-03T15:47:09;46.83;;;18.05;;
71610;SDS011;59459;51.172;6.682;2023-03-03T15:57:40;42.00;;;16.95;;
71610;SDS011;59459;51.172;6.682;2023-03-03T16:03:15;42.67;;;16.80;;
71610;SDS011;59459;51.172;6.682;2023-03-03T16:08:38;50.38;;;19.33;;
71610;SDS011;59459;51.172;6.682;2023-03-03T16:13:46;54.90;;;19.35;;
71610;SDS011;59459;51.172;6.682;2023-03-03T16:16:24;52.00;;;20.07;;
71610;SDS011;59459;51.172;6.682;2023-03-03T16:19:13;44.83;;;17.42;;
71610;SDS011;59459;51.172;6.682;2023-03-03T16:27:05;47.55;;;16.98;;
71610;SDS011;59459;51.172;6.682;2023-03-03T16:29:38;49.30;;;18.13;;
71610;SDS011;59459;51.172;6.682;2023-03-03T16:34:44;47.00;;;19.10;;
71610;SDS011;59459;51.172;6.682;2023-03-03T16:37:18;51.75;;;18.17;;
71610;SDS011;59459;51.172;6.682;2023-03-03T16:39:51;50.42;;;19.13;;
71610;SDS011;59459;51.172;6.682;2023-03-03T16:42:23;52.87;;;18.77;;
71610;SDS011;59459;51.172;6.682;2023-03-03T16:44:56;52.95;;;18.38;;
71610;SDS011;59459;51.172;6.682;2023-03-03T16:52:54;55.92;;;20.80;;
71610;SDS011;59459;51.172;6.682;2023-03-03T16:55:31;53.83;;;19.07;;
71610;SDS011;59459;51.172;6.682;2023-03-03T17:00:27;54.60;;;20.90;;
71610;SDS011;59459;51.172;6.682;2023-03-03T17:10:41;56.37;;;22.27;;
71610;SDS011;59459;51.172;6.682;2023-03-03T17:13:36;61.03;;;22.10;;
71610;SDS011;59459;51.172;6.682;2023-03-03T17:18:35;63.85;;;22.58;;
71610;SDS011;59459;51.172;6.682;2023-03-03T17:21:02;65.40;;;24.05;;
71610;SDS011;59459;51.172;6.682;2023-03-03T17:23:41;69.20;;;26.20;;
71610;SDS011;59459;51.172;6.682;2023-03-03T17:36:36;64.00;;;25.03;;
71610;SDS011;59459;51.172;6.682;2023-03-03T17:44:16;77.75;;;27.00;;
71610;SDS011;59459;51.172;6.682;2023-03-03T17:46:45;70.32;;;26.15;;
71610;SDS011;59459;51.172;6.682;2023-03-03T17:49:19;75.13;;;26.87;;
71610;SDS011;59459;51.172;6.682;2023-03-03T18:14:53;72.60;;;26.55;;
71610;SDS011;59459;51.172;6.682;2023-03-03T18:17:32;67.80;;;24.73;;
71610;SDS011;59459;51.172;6.682;2023-03-03T18:22:43;71.57;;;25.60;;
71610;SDS011;59459;51.172;6.682;2023-03-03T18:25:12;66.95;;;24.95;;
71610;SDS011;59459;51.172;6.682;2023-03-03T18:27:39;68.22;;;23.98;;
71610;SDS011;59459;51.172;6.682;2023-03-03T18:37:57;64.97;;;23.03;;
71610;SDS011;59459;51.172;6.682;2023-03-03T18:57:14;70.53;;;24.83;;
71610;SDS011;59459;51.172;6.682;2023-03-03T19:01:54;71.65;;;27.70;;
71610;SDS011;59459;51.172;6.682;2023-03-03T19:04:32;59.10;;;23.37;;
71610;SDS011;59459;51.172;6.682;2023-03-03T19:07:07;70.00;;;25.15;;
71610;SDS011;59459;51.172;6.682;2023-03-03T19:17:49;70.47;;;23.53;;
71610;SDS011;59459;51.172;6.682;2023-03-03T19:20:17;72.05;;;24.88;;
71610;SDS011;59459;51.172;6.682;2023-03-03T19:22:52;69.37;;;25.40;;
71610;SDS011;59459;51.172;6.682;2023-03-03T19:25:28;75.67;;;26.63;;
71610;SDS011;59459;51.172;6.682;2023-03-03T19:33:32;76.07;;;26.38;;
71610;SDS011;59459;51.172;6.682;2023-03-03T19:40:59;75.53;;;25.43;;
71610;SDS011;59459;51.172;6.682;2023-03-03T19:53:50;69.10;;;22.80;;
71610;SDS011;59459;51.172;6.682;2023-03-03T19:56:20;68.72;;;24.65;;
71610;SDS011;59459;51.172;6.682;2023-03-03T19:59:10;73.10;;;22.97;;
71610;SDS011;59459;51.172;6.682;2023-03-03T20:16:43;81.15;;;27.50;;
71610;SDS011;59459;51.172;6.682;2023-03-03T20:50:50;57.03;;;19.87;;
71610;SDS011;59459;51.172;6.682;2023-03-03T20:56:06;63.60;;;22.00;;
71610;SDS011;59459;51.172;6.682;2023-03-03T20:58:45;61.20;;;22.17;;
71610;SDS011;59459;51.172;6.682;2023-03-03T21:01:22;54.17;;;20.27;;
71610;SDS011;59459;51.172;6.682;2023-03-03T21:03:52;61.90;;;20.90;;
71610;SDS011;59459;51.172;6.682;2023-03-03T21:06:18;55.07;;;19.60;;
71610;SDS011;59459;51.172;6.682;2023-03-03T21:11:10;50.63;;;19.13;;
71610;SDS011;59459;51.172;6.682;2023-03-03T21:13:39;58.47;;;20.70;;
71610;SDS011;59459;51.172;6.682;2023-03-03T21:16:15;57.42;;;20.00;;
71610;SDS011;59459;51.172;6.682;2023-03-03T21:18:41;51.58;;;19.65;;